Time;durP1;ratioP1;P1;durP2;ratioP2;P2;SDS_P1;SDS_P2;PMS_P1;PMS_P2;Temp;Humidity;BMP_temperature;BMP_pressure;BME280_temperature;BME280_humidity;BME280_pressure;Samples;Min_cycle;Max_cycle;Signal;HPM_P1;HPM_P2
2022/06/30 00:00:43;;;;;;;7.65;4.70;;;;;;;23.62;66.26;99635.53;5130168;27;20035;-75
2022/06/30 00:03:09;;;;;;;14.25;5.47;;;;;;;23.42;67.23;99637.91;5130600;27;20194;-75
2022/06/30 00:05:35;;;;;;;8.50;5.03;;;;;;;23.49;66.55;99641.25;5133855;27;20038;-75
2022/06/30 00:08:00;;;;;;;7.57;5.25;;;;;;;23.68;66.55;99642.63;5117503;28;20032;-75
2022/06/30 00:10:26;;;;;;;8.90;5.05;;;;;;;23.63;66.68;99641.75;5129880;27;20329;-75
2022/06/30 00:12:51;;;;;;;9.68;4.80;;;;;;;23.72;66.54;99637.53;5127343;27;20288;-75
2022/06/30 00:15:17;;;;;;;10.90;5.30;;;;;;;23.79;66.33;99635.47;5133359;27;20112;-75
2022/06/30 00:17:43;;;;;;;7.85;5.15;;;;;;;23.67;66.17;99627.47;5131989;27;20031;-75
2022/06/30 00:20:09;;;;;;;12.55;5.50;;;;;;;23.63;66.86;99636.34;5129756;27;20271;-75
2022/06/30 00:22:34;;;;;;;11.00;5.47;;;;;;;23.52;67.18;99630.75;5129271;27;20267;-74
2022/06/30 00:25:00;;;;;;;9.60;5.70;;;;;;;23.51;66.71;99636.41;5132454;27;20031;-75
2022/06/30 00:27:26;;;;;;;12.13;5.70;;;;;;;23.39;67.46;99643.81;5114826;27;20099;-74
2022/06/30 00:29:51;;;;;;;12.40;5.78;;;;;;;23.27;68.09;99638.50;5111246;27;20023;-76
2022/06/30 00:32:17;;;;;;;12.93;5.95;;;;;;;23.11;68.59;99634.75;5131578;27;20316;-75
2022/06/30 00:34:42;;;;;;;11.20;6.45;;;;;;;23.06;69.07;99637.38;5133005;27;20019;-76
2022/06/30 00:37:08;;;;;;;9.52;5.53;;;;;;;22.97;69.43;99629.94;5130628;27;20045;-75
2022/06/30 00:39:33;;;;;;;16.45;6.07;;;;;;;22.81;70.47;99636.94;5126235;27;20373;-75
2022/06/30 00:41:59;;;;;;;8.88;6.13;;;;;;;22.71;70.68;99623.22;5130847;27;20080;-76
2022/06/30 00:44:24;;;;;;;9.80;6.43;;;;;;;22.55;71.75;99628.38;5131082;27;20050;-76
2022/06/30 00:46:50;;;;;;;9.70;5.90;;;;;;;22.61;71.69;99630.09;5133232;27;20030;-75
2022/06/30 00:49:17;;;;;;;10.82;6.18;;;;;;;22.23;73.63;99628.06;5133090;27;20028;-76
2022/06/30 00:51:43;;;;;;;10.38;5.97;;;;;;;22.22;73.22;99623.72;5114725;28;20347;-76
2022/06/30 00:54:11;;;;;;;7.32;5.53;;;;;;;22.12;73.68;99617.31;5134176;27;20031;-75
2022/06/30 00:56:40;;;;;;;8.48;5.47;;;;;;;22.43;73.04;99622.22;5129227;27;20362;-76
2022/06/30 00:59:08;;;;;;;11.63;5.93;;;;;;;22.40;72.87;99619.19;5142109;27;20084;-74
2022/06/30 01:01:36;;;;;;;11.98;6.22;;;;;;;22.49;72.23;99623.94;5125065;27;20076;-76
2022/06/30 01:04:02;;;;;;;11.55;6.55;;;;;;;22.46;72.06;99616.34;5128525;27;20095;-74
2022/06/30 01:06:29;;;;;;;9.30;5.75;;;;;;;22.62;71.30;99612.84;5125648;27;20043;-76
2022/06/30 01:08:54;;;;;;;11.40;6.28;;;;;;;22.58;71.26;99619.78;5110224;27;20043;-76
2022/06/30 01:14:04;;;;;;;11.45;5.90;;;;;;;22.82;70.62;99623.19;5128164;27;20031;-76
2022/06/30 01:16:30;;;;;;;8.90;5.70;;;;;;;22.89;70.30;99631.97;5143470;27;20280;-76
2022/06/30 01:18:55;;;;;;;10.73;6.15;;;;;;;22.98;69.76;99618.06;5128207;27;20023;-76
2022/06/30 01:21:21;;;;;;;14.27;6.15;;;;;;;23.02;69.73;99633.53;5126237;27;20039;-76
2022/06/30 01:23:46;;;;;;;13.10;6.15;;;;;;;23.07;69.83;99632.78;5129139;27;20039;-75
2022/06/30 01:26:12;;;;;;;9.48;5.82;;;;;;;23.19;69.47;99630.81;5126068;27;20035;-76
2022/06/30 01:28:38;;;;;;;14.65;6.20;;;;;;;23.08;69.83;99631.72;5128504;27;20060;-76
2022/06/30 01:31:04;;;;;;;9.57;6.20;;;;;;;23.29;68.85;99633.69;5126455;27;20099;-76
2022/06/30 01:33:29;;;;;;;9.70;5.93;;;;;;;23.19;68.92;99618.13;5135627;27;20088;-75
2022/06/30 01:35:56;;;;;;;8.25;5.93;;;;;;;23.11;69.53;99625.84;5130706;27;20324;-75
2022/06/30 01:38:21;;;;;;;11.85;6.25;;;;;;;23.12;69.58;99627.47;5110891;27;20012;-75
2022/06/30 01:40:47;;;;;;;13.35;6.05;;;;;;;23.08;69.88;99634.44;5130712;27;20031;-75
2022/06/30 01:43:13;;;;;;;13.65;6.40;;;;;;;23.02;70.46;99625.44;5126365;27;20020;-75
2022/06/30 01:45:40;;;;;;;10.02;6.18;;;;;;;23.06;70.05;99626.56;5125263;27;20052;-75
2022/06/30 01:48:06;;;;;;;12.23;6.25;;;;;;;23.08;69.80;99623.63;5130195;27;20027;-75
2022/06/30 01:50:32;;;;;;;13.02;6.25;;;;;;;23.03;70.20;99629.78;5126244;27;20220;-75
2022/06/30 01:52:59;;;;;;;8.07;6.60;;;;;;;23.00;70.24;99626.75;5141851;27;20026;-75
2022/06/30 01:55:25;;;;;;;10.55;6.22;;;;;;;23.05;69.69;99624.13;5126755;27;20274;-75
2022/06/30 01:57:52;;;;;;;13.75;6.20;;;;;;;22.98;70.01;99627.00;5128575;27;20019;-76
2022/06/30 02:00:20;;;;;;;12.68;6.18;;;;;;;23.07;69.43;99630.91;5126686;27;20027;-75
2022/06/30 02:02:46;;;;;;;11.50;6.68;;;;;;;22.99;69.49;99623.22;5128893;27;20286;-75
2022/06/30 02:05:12;;;;;;;9.55;6.07;;;;;;;22.76;70.29;99620.63;5127880;27;20027;-76
2022/06/30 02:07:39;;;;;;;10.32;6.45;;;;;;;22.81;69.97;99616.16;5127197;27;20102;-75
2022/06/30 02:10:10;;;;;;;12.02;6.32;;;;;;;22.89;70.03;99620.34;5128512;27;20056;-75
2022/06/30 02:12:48;;;;;;;9.27;5.90;;;;;;;22.93;69.36;99632.31;5126866;27;20054;-76
2022/06/30 02:15:21;;;;;;;12.10;6.25;;;;;;;23.00;68.89;99634.84;5125794;27;20047;-75
2022/06/30 02:17:49;;;;;;;8.35;6.20;;;;;;;22.96;68.52;99628.28;5126609;27;20027;-75
2022/06/30 02:20:18;;;;;;;12.30;6.20;;;;;;;22.86;68.92;99634.31;5124922;27;20846;-75
2022/06/30 02:22:44;;;;;;;8.63;6.00;;;;;;;22.74;69.32;99638.94;5129731;27;20043;-75
2022/06/30 02:25:09;;;;;;;9.13;6.10;;;;;;;22.58;70.65;99635.16;5132192;27;20222;-75
2022/06/30 02:27:35;;;;;;;9.05;6.38;;;;;;;22.41;71.45;99639.69;5126625;27;20225;-75
2022/06/30 02:30:01;;;;;;;12.88;6.47;;;;;;;22.28;72.56;99638.13;5127855;27;20027;-75
2022/06/30 02:32:26;;;;;;;12.23;6.30;;;;;;;22.22;72.57;99637.19;5127455;27;20085;-76
2022/06/30 02:34:53;;;;;;;9.45;6.47;;;;;;;22.27;72.59;99639.19;5126912;27;20100;-75
2022/06/30 02:37:19;;;;;;;9.55;6.78;;;;;;;22.25;72.48;99644.00;5128677;27;20042;-75
2022/06/30 02:39:44;;;;;;;12.30;6.20;;;;;;;22.17;71.99;99650.59;5126009;27;20032;-75
2022/06/30 02:42:10;;;;;;;8.93;6.35;;;;;;;22.02;72.76;99649.44;5126452;27;20822;-75
2022/06/30 02:44:35;;;;;;;14.02;6.85;;;;;;;21.90;73.18;99650.28;5125663;27;20198;-75
2022/06/30 02:47:02;;;;;;;13.88;7.18;;;;;;;21.84;73.81;99653.91;5125350;27;20034;-74
2022/06/30 02:49:27;;;;;;;13.43;8.13;;;;;;;21.90;73.22;99652.97;5126940;27;20075;-74
2022/06/30 02:51:53;;;;;;;14.05;7.60;;;;;;;21.95;72.96;99649.56;5124792;27;20027;-74
2022/06/30 02:54:18;;;;;;;15.13;7.63;;;;;;;22.03;72.78;99643.84;5127699;27;20035;-74
2022/06/30 02:56:44;;;;;;;16.42;8.25;;;;;;;22.07;72.81;99653.09;5127813;27;20213;-74
2022/06/30 02:59:10;;;;;;;14.45;7.65;;;;;;;22.17;72.85;99655.16;5125385;28;20355;-74
2022/06/30 03:01:35;;;;;;;12.32;7.43;;;;;;;22.25;72.31;99660.19;5109596;27;20031;-75
2022/06/30 03:04:02;;;;;;;12.50;6.95;;;;;;;22.28;71.50;99657.00;5141675;27;20239;-74
2022/06/30 03:06:32;;;;;;;10.32;7.45;;;;;;;22.37;71.22;99662.81;5126966;28;20039;-74
2022/06/30 03:08:59;;;;;;;13.27;7.72;;;;;;;22.40;71.15;99670.44;5140231;27;20011;-74
2022/06/30 03:11:24;;;;;;;17.58;8.55;;;;;;;22.18;71.03;99665.72;5126825;28;20100;-74
2022/06/30 03:13:50;;;;;;;16.25;7.70;;;;;;;21.75;73.14;99644.53;5143076;27;20321;-74
2022/06/30 03:16:16;;;;;;;18.55;7.80;;;;;;;21.84;73.63;99653.91;5142195;27;20031;-74
2022/06/30 03:18:42;;;;;;;16.27;7.30;;;;;;;21.95;73.85;99669.25;5127660;27;20069;-74
2022/06/30 03:21:08;;;;;;;14.02;8.07;;;;;;;22.12;73.57;99674.75;5115069;27;20031;-74
2022/06/30 03:23:34;;;;;;;13.32;7.88;;;;;;;22.28;72.22;99663.22;5128463;27;20351;-74
2022/06/30 03:25:59;;;;;;;17.33;8.30;;;;;;;22.29;71.41;99674.81;5130627;27;20030;-74
2022/06/30 03:28:25;;;;;;;13.68;8.20;;;;;;;22.23;71.51;99676.59;5131726;27;20232;-74
2022/06/30 03:30:51;;;;;;;11.50;7.47;;;;;;;22.24;71.50;99675.53;5130207;27;20072;-75
2022/06/30 03:33:17;;;;;;;14.43;7.20;;;;;;;22.35;70.38;99676.56;5132138;27;20038;-75
2022/06/30 03:35:44;;;;;;;14.32;7.07;;;;;;;22.52;69.70;99669.31;5132596;27;20250;-74
2022/06/30 03:38:10;;;;;;;12.65;7.10;;;;;;;22.66;68.78;99672.53;5111233;27;20015;-75
2022/06/30 03:40:35;;;;;;;20.58;8.48;;;;;;;22.75;67.40;99672.97;5131515;27;20344;-75
2022/06/30 03:43:01;;;;;;;14.13;7.80;;;;;;;22.77;67.45;99677.06;5128143;27;21428;-74
2022/06/30 03:45:27;;;;;;;15.48;7.50;;;;;;;22.70;69.32;99683.69;5132279;27;20329;-74
2022/06/30 03:47:52;;;;;;;14.73;7.50;;;;;;;22.53;70.46;99681.75;5131247;27;20225;-75
2022/06/30 03:50:18;;;;;;;17.50;7.80;;;;;;;22.46;71.62;99686.47;5129962;27;20247;-75
2022/06/30 03:52:44;;;;;;;24.58;8.38;;;;;;;22.55;72.23;99690.44;5112618;28;20050;-75
2022/06/30 03:55:10;;;;;;;19.45;7.65;;;;;;;22.69;70.93;99679.34;5128645;27;20190;-75
2022/06/30 03:57:36;;;;;;;19.45;8.05;;;;;;;22.82;70.69;99696.09;5131037;27;20030;-75
2022/06/30 04:00:03;;;;;;;13.25;7.55;;;;;;;22.76;71.17;99688.09;5128268;27;20238;-75
2022/06/30 04:02:28;;;;;;;21.67;8.07;;;;;;;22.99;70.83;99695.31;5136449;27;20077;-74
2022/06/30 04:04:54;;;;;;;15.43;7.82;;;;;;;22.95;70.47;99654.47;5130143;27;21673;-75
2022/06/30 04:07:19;;;;;;;16.95;8.60;;;;;;;23.26;69.24;99688.19;5126883;27;20015;-74
2022/06/30 04:09:45;;;;;;;19.83;9.23;;;;;;;23.44;68.32;99687.94;5130155;27;20035;-74
2022/06/30 04:12:11;;;;;;;18.58;9.45;;;;;;;23.64;67.32;99692.03;5127678;27;20313;-75
2022/06/30 04:14:36;;;;;;;16.55;8.60;;;;;;;23.71;64.71;99695.38;5129654;27;20192;-75
2022/06/30 04:17:02;;;;;;;18.00;8.23;;;;;;;23.81;65.13;99690.13;5130657;27;20019;-74
2022/06/30 04:19:27;;;;;;;15.30;8.55;;;;;;;23.92;65.73;99699.19;5129168;27;20042;-74
2022/06/30 04:21:53;;;;;;;15.50;7.35;;;;;;;24.17;64.18;99669.78;5130090;27;20035;-75
2022/06/30 04:24:18;;;;;;;13.82;8.05;;;;;;;24.72;62.51;99693.97;5111913;27;20247;-75
2022/06/30 04:26:43;;;;;;;16.05;7.25;;;;;;;24.77;61.90;99690.47;5128249;27;20221;-74
2022/06/30 04:29:09;;;;;;;11.85;6.88;;;;;;;24.89;61.40;99691.13;5128460;27;20261;-74
2022/06/30 04:34:18;;;;;;;10.05;6.05;;;;;;;25.89;58.24;99700.34;5130553;27;20022;-75
2022/06/30 04:36:44;;;;;;;10.27;6.00;;;;;;;26.06;57.94;99687.44;5127672;27;20044;-74
2022/06/30 04:39:09;;;;;;;9.27;5.93;;;;;;;26.31;57.44;99691.31;5132264;27;20209;-75
2022/06/30 04:41:36;;;;;;;8.20;5.45;;;;;;;26.37;56.23;99693.81;5125902;27;20046;-74
2022/06/30 04:44:02;;;;;;;7.50;5.10;;;;;;;26.49;54.88;99695.47;5132812;27;20073;-74
2022/06/30 04:46:28;;;;;;;12.10;5.78;;;;;;;26.73;54.01;99696.63;5127130;27;20034;-75
2022/06/30 04:48:54;;;;;;;7.70;5.20;;;;;;;26.91;52.94;99692.56;5136151;27;20229;-75
2022/06/30 04:51:20;;;;;;;8.20;5.00;;;;;;;27.01;52.41;99711.63;5136631;27;20072;-75
2022/06/30 04:53:46;;;;;;;10.70;5.80;;;;;;;27.08;52.30;99703.25;5132814;27;20034;-75
2022/06/30 04:56:12;;;;;;;11.65;5.78;;;;;;;26.90;51.65;99672.72;5129833;27;20250;-76
2022/06/30 04:58:38;;;;;;;11.18;5.43;;;;;;;27.23;50.39;99703.25;5125783;27;20015;-75
2022/06/30 05:01:04;;;;;;;12.52;5.72;;;;;;;27.15;49.96;99696.44;5130214;27;20390;-76
2022/06/30 05:03:31;;;;;;;12.63;4.95;;;;;;;27.43;49.70;99705.13;5128514;27;20043;-76
2022/06/30 05:05:57;;;;;;;10.80;4.65;;;;;;;27.48;48.76;99696.97;5135413;27;20315;-76
2022/06/30 05:08:22;;;;;;;10.85;5.80;;;;;;;27.61;48.44;99704.59;5128287;27;20047;-76
2022/06/30 05:10:48;;;;;;;10.68;5.22;;;;;;;27.68;47.34;99705.13;5129285;27;20051;-76
2022/06/30 05:13:14;;;;;;;8.30;5.10;;;;;;;27.97;47.12;99697.97;5127409;27;20075;-75
2022/06/30 05:15:39;;;;;;;12.50;5.18;;;;;;;28.06;46.71;99700.09;5144706;27;20421;-76
2022/06/30 05:18:05;;;;;;;11.27;4.72;;;;;;;28.25;46.51;99710.16;5128785;27;20073;-76
2022/06/30 05:20:31;;;;;;;7.32;4.75;;;;;;;28.09;46.23;99702.28;5129452;27;20382;-76
2022/06/30 05:22:57;;;;;;;8.68;5.03;;;;;;;28.26;46.27;99700.91;5128586;27;20036;-76
2022/06/30 05:28:07;;;;;;;8.05;4.88;;;;;;;28.36;45.25;99707.38;5127066;27;20073;-74
2022/06/30 05:30:33;;;;;;;11.90;5.18;;;;;;;28.09;45.87;99705.00;5127246;27;20266;-75
2022/06/30 05:32:58;;;;;;;7.63;4.80;;;;;;;28.18;45.58;99698.72;5130273;27;20353;-76
2022/06/30 05:35:24;;;;;;;10.13;5.03;;;;;;;28.23;45.24;99704.19;5125351;27;20047;-75
2022/06/30 05:37:50;;;;;;;10.88;5.80;;;;;;;28.27;46.54;99704.44;5128617;27;20035;-75
2022/06/30 05:40:15;;;;;;;9.85;5.68;;;;;;;28.48;45.63;99713.31;5124101;27;20035;-75
2022/06/30 05:42:41;;;;;;;15.35;5.85;;;;;;;28.78;45.57;99695.97;5111050;27;20060;-75
2022/06/30 05:45:06;;;;;;;11.50;6.07;;;;;;;28.65;46.26;99716.47;5125903;27;20038;-74
2022/06/30 05:47:32;;;;;;;9.63;5.07;;;;;;;28.48;46.44;99718.75;5128452;27;20031;-75
2022/06/30 05:49:58;;;;;;;12.25;5.57;;;;;;;28.40;46.53;99720.16;5125008;27;20043;-75
2022/06/30 05:52:24;;;;;;;13.82;5.88;;;;;;;28.67;46.28;99722.47;5128483;27;20188;-75
2022/06/30 05:54:49;;;;;;;10.60;5.70;;;;;;;28.76;45.39;99714.50;5128753;27;20292;-75
2022/06/30 05:57:15;;;;;;;12.77;5.32;;;;;;;29.10;44.29;99720.84;5128287;27;20019;-75
2022/06/30 05:59:40;;;;;;;16.13;6.43;;;;;;;29.37;44.31;99725.00;5128451;27;20046;-76
2022/06/30 06:02:07;;;;;;;7.82;5.38;;;;;;;29.35;43.93;99714.38;5126936;27;20539;-76
2022/06/30 06:04:33;;;;;;;12.40;5.45;;;;;;;29.33;44.59;99718.50;5106284;27;20286;-75
2022/06/30 06:06:59;;;;;;;9.55;5.45;;;;;;;29.58;44.21;99726.47;5111841;27;20071;-75
2022/06/30 06:09:24;;;;;;;10.65;5.28;;;;;;;30.09;42.55;99729.50;5124704;27;20019;-75
2022/06/30 06:11:50;;;;;;;11.38;5.57;;;;;;;30.22;41.53;99728.03;5127211;27;20043;-75
2022/06/30 06:14:15;;;;;;;7.90;4.47;;;;;;;30.00;41.69;99706.66;5125581;27;20045;-75
2022/06/30 06:16:41;;;;;;;7.72;4.75;;;;;;;30.28;39.77;99731.50;5130456;27;20029;-75
2022/06/30 06:19:06;;;;;;;11.07;4.75;;;;;;;30.35;40.87;99732.78;5127442;27;20237;-75
2022/06/30 06:21:34;;;;;;;12.07;4.70;;;;;;;30.24;41.23;99723.06;5127974;27;20040;-75
2022/06/30 06:23:59;;;;;;;9.60;4.25;;;;;;;30.65;40.23;99733.50;5106575;27;20219;-76
2022/06/30 06:26:25;;;;;;;14.93;4.70;;;;;;;30.68;39.70;99724.69;5127702;27;20218;-75
2022/06/30 06:29:06;;;;;;;6.07;4.80;;;;;;;30.79;39.95;99716.06;5124533;27;20251;-75
2022/06/30 06:31:37;;;;;;;15.80;4.80;;;;;;;31.09;37.86;99713.97;5131752;27;20047;-76
2022/06/30 06:34:03;;;;;;;10.43;5.13;;;;;;;31.07;38.16;99721.66;5125456;27;20073;-75
2022/06/30 06:36:29;;;;;;;8.35;4.55;;;;;;;31.42;38.11;99723.84;5130208;27;20094;-75
2022/06/30 06:38:54;;;;;;;12.45;4.50;;;;;;;31.57;36.47;99720.03;5124095;27;20221;-75
2022/06/30 06:41:21;;;;;;;7.00;3.95;;;;;;;31.83;35.65;99716.84;5130978;27;20039;-75
2022/06/30 06:43:50;;;;;;;9.55;4.20;;;;;;;32.08;33.17;99719.09;5124720;27;20386;-75
2022/06/30 06:46:16;;;;;;;5.63;3.88;;;;;;;32.21;32.70;99715.53;5133850;27;20041;-75
2022/06/30 06:48:42;;;;;;;9.70;4.15;;;;;;;31.86;33.46;99718.97;5109593;28;20051;-75
2022/06/30 06:51:08;;;;;;;7.90;4.10;;;;;;;32.19;33.83;99700.50;5127240;27;20032;-75
2022/06/30 06:53:35;;;;;;;8.32;4.05;;;;;;;32.59;32.37;99709.84;5124584;27;20035;-74
2022/06/30 06:56:01;;;;;;;10.30;4.13;;;;;;;32.76;32.29;99703.69;5127316;27;20043;-75
2022/06/30 06:58:27;;;;;;;9.02;4.53;;;;;;;32.85;32.06;99694.44;5126317;27;20192;-76
2022/06/30 07:00:55;;;;;;;13.95;4.93;;;;;;;33.05;33.40;99708.78;5127903;28;20080;-75
2022/06/30 07:03:21;;;;;;;6.50;4.32;;;;;;;33.16;32.11;99704.66;5127962;27;20039;-75
2022/06/30 07:05:47;;;;;;;8.30;4.15;;;;;;;33.31;32.35;99705.16;5126558;27;20049;-75
2022/06/30 07:08:13;;;;;;;8.63;4.30;;;;;;;33.46;32.63;99700.41;5117625;28;20031;-74
2022/06/30 07:10:38;;;;;;;8.50;4.10;;;;;;;33.47;33.08;99702.81;5127914;28;20220;-75
2022/06/30 07:13:05;;;;;;;3.72;3.28;;;;;;;33.39;32.55;99703.59;5123151;28;20042;-73
2022/06/30 07:15:30;;;;;;;6.82;4.20;;;;;;;33.36;32.13;99695.97;5129213;27;20320;-73
2022/06/30 07:17:56;;;;;;;10.70;3.78;;;;;;;33.73;31.32;99691.16;5124875;28;20043;-74
2022/06/30 07:20:22;;;;;;;7.90;3.95;;;;;;;33.97;30.97;99694.34;5126919;28;20039;-73
2022/06/30 07:22:47;;;;;;;7.85;4.20;;;;;;;34.22;31.58;99692.78;5123467;28;20042;-73
2022/06/30 07:25:13;;;;;;;7.82;4.30;;;;;;;34.06;31.91;99695.19;5127233;28;20023;-75
2022/06/30 07:27:38;;;;;;;7.55;4.93;;;;;;;34.29;31.88;99690.38;5126722;28;20274;-73
2022/06/30 07:30:04;;;;;;;7.38;4.10;;;;;;;34.01;30.97;99683.53;5125252;28;20039;-73
2022/06/30 07:32:30;;;;;;;7.28;4.05;;;;;;;34.16;30.14;99680.34;5128500;28;20046;-73
2022/06/30 07:34:55;;;;;;;9.13;4.20;;;;;;;34.33;29.96;99685.91;5125761;28;20042;-74
2022/06/30 07:37:21;;;;;;;8.90;4.50;;;;;;;34.37;29.75;99688.84;5142511;27;20214;-73
2022/06/30 07:39:46;;;;;;;6.72;3.67;;;;;;;34.21;29.21;99691.97;5126703;28;20396;-73
2022/06/30 07:42:12;;;;;;;7.00;3.50;;;;;;;34.45;28.99;99680.59;5125059;28;20080;-73
2022/06/30 07:44:37;;;;;;;6.35;3.88;;;;;;;34.64;29.12;99682.22;5128319;28;20023;-73
2022/06/30 07:47:03;;;;;;;8.23;3.42;;;;;;;34.48;28.64;99676.41;5123936;28;20027;-73
2022/06/30 07:49:29;;;;;;;10.43;3.83;;;;;;;34.34;29.40;99697.72;5126905;28;20052;-74
2022/06/30 07:51:54;;;;;;;10.80;4.05;;;;;;;34.45;29.61;99688.03;5124739;28;20031;-73
2022/06/30 07:54:20;;;;;;;5.15;3.67;;;;;;;34.73;29.69;99680.28;5108246;28;20183;-74
2022/06/30 07:56:46;;;;;;;6.55;3.47;;;;;;;34.86;29.13;99682.09;5123338;28;20043;-73
2022/06/30 07:59:11;;;;;;;7.80;3.60;;;;;;;34.88;29.00;99685.31;5124956;28;20228;-74
2022/06/30 08:01:37;;;;;;;6.25;4.00;;;;;;;34.98;28.93;99679.50;5106289;28;20032;-73
2022/06/30 08:04:03;;;;;;;9.68;3.78;;;;;;;35.18;30.01;99681.56;5126427;27;20094;-74
2022/06/30 08:06:28;;;;;;;8.48;4.40;;;;;;;35.12;28.89;99673.81;5132481;27;20031;-74
2022/06/30 08:08:54;;;;;;;11.60;3.95;;;;;;;35.21;28.88;99669.91;5127599;27;20036;-74
2022/06/30 08:11:19;;;;;;;7.88;4.13;;;;;;;34.99;28.93;99672.03;5132150;27;20379;-73
2022/06/30 08:13:45;;;;;;;9.07;3.83;;;;;;;34.41;29.95;99674.13;5127617;27;20024;-73
2022/06/30 08:16:11;;;;;;;7.68;4.00;;;;;;;33.60;31.40;99676.41;5114504;27;20321;-75
2022/06/30 08:18:37;;;;;;;8.13;4.38;;;;;;;33.43;31.92;99668.09;5128924;27;20031;-75
2022/06/30 08:21:03;;;;;;;5.88;3.95;;;;;;;33.03;31.85;99672.63;5131830;27;20098;-75
2022/06/30 08:23:29;;;;;;;5.82;3.85;;;;;;;33.25;31.03;99670.69;5143037;27;20348;-75
2022/06/30 08:25:54;;;;;;;8.45;3.63;;;;;;;33.36;31.21;99668.53;5129538;27;20043;-74
2022/06/30 08:28:20;;;;;;;6.07;3.55;;;;;;;33.86;31.46;99679.28;5129994;27;20229;-73
2022/06/30 08:30:48;;;;;;;9.10;3.50;;;;;;;34.10;30.43;99673.38;5130024;27;20066;-73
2022/06/30 08:33:14;;;;;;;6.13;3.47;;;;;;;34.46;30.08;99678.66;5111777;27;20257;-73
2022/06/30 08:35:40;;;;;;;9.85;3.67;;;;;;;34.81;29.33;99683.03;5130831;27;20017;-73
2022/06/30 08:38:05;;;;;;;7.82;3.53;;;;;;;35.00;28.63;99674.47;5128342;27;20063;-73
2022/06/30 08:43:18;;;;;;;5.28;2.88;;;;;;;34.78;28.02;99669.94;5129092;27;20038;-73
2022/06/30 08:45:45;;;;;;;6.45;3.30;;;;;;;34.39;29.02;99672.84;5108987;27;20093;-73
2022/06/30 08:48:12;;;;;;;8.25;3.72;;;;;;;34.54;27.90;99655.88;5135725;27;20040;-74
2022/06/30 08:50:42;;;;;;;9.00;3.58;;;;;;;34.79;27.63;99663.31;5132117;27;20046;-73
2022/06/30 08:53:09;;;;;;;9.80;3.50;;;;;;;34.55;29.02;99671.22;5108505;27;20032;-75
2022/06/30 08:55:35;;;;;;;6.05;3.67;;;;;;;33.54;31.28;99659.25;5132175;27;20032;-74
2022/06/30 08:58:05;;;;;;;5.28;3.10;;;;;;;33.23;29.87;99659.22;5126666;27;20030;-75
2022/06/30 09:00:31;;;;;;;5.80;3.17;;;;;;;33.29;29.91;99659.88;5128912;27;20098;-75
2022/06/30 09:02:56;;;;;;;13.40;3.72;;;;;;;33.20;31.04;99668.06;5126207;27;20035;-75
2022/06/30 09:05:22;;;;;;;11.13;3.80;;;;;;;32.65;30.86;99668.28;5131111;27;20079;-75
2022/06/30 09:07:47;;;;;;;7.30;3.63;;;;;;;32.96;32.54;99659.34;5128040;27;20308;-75
2022/06/30 09:10:13;;;;;;;5.45;3.50;;;;;;;33.50;29.95;99660.22;5130002;27;20173;-75
2022/06/30 09:12:38;;;;;;;7.30;3.72;;;;;;;33.99;29.33;99667.38;5127994;27;20064;-75
2022/06/30 09:15:05;;;;;;;5.03;3.15;;;;;;;34.32;27.75;99665.03;5129484;27;20061;-73
2022/06/30 09:17:31;;;;;;;7.65;3.03;;;;;;;34.39;29.05;99659.91;5129146;27;20324;-73
2022/06/30 09:19:59;;;;;;;5.88;3.17;;;;;;;34.48;28.41;99660.72;5128135;27;20031;-73
2022/06/30 09:22:37;;;;;;;7.82;3.90;;;;;;;34.21;28.78;99658.19;5129277;27;20787;-73
2022/06/30 09:25:10;;;;;;;7.03;3.78;;;;;;;33.94;29.38;99662.81;5129566;27;20399;-75
2022/06/30 09:27:38;;;;;;;9.18;3.60;;;;;;;33.82;29.61;99651.66;5126105;27;20324;-73
2022/06/30 09:30:10;;;;;;;6.75;3.83;;;;;;;33.57;30.98;99660.56;5126572;27;20296;-75
2022/06/30 09:32:56;;;;;;;5.70;3.58;;;;;;;33.38;31.09;99662.72;5128466;27;20051;-73
2022/06/30 09:35:30;;;;;;;3.83;3.28;;;;;;;33.77;31.20;99662.75;5131237;27;20031;-73
2022/06/30 09:38:03;;;;;;;;;;;;;;;33.69;30.40;99655.28;5125765;27;20057;-73
2022/06/30 09:40:34;;;;;;;10.57;4.25;;;;;;;33.54;31.33;99656.53;5129440;27;20107;-73
2022/06/30 09:43:00;;;;;;;5.10;3.53;;;;;;;33.62;30.70;99652.19;5126399;27;20088;-73
2022/06/30 09:45:33;;;;;;;8.60;3.58;;;;;;;33.56;29.53;99648.78;5128079;27;20258;-73
2022/06/30 09:47:59;;;;;;;8.43;4.20;;;;;;;33.58;31.44;99649.25;5107247;27;21028;-73
2022/06/30 09:50:25;;;;;;;9.23;3.78;;;;;;;33.81;31.62;99657.44;5127585;27;20035;-73
2022/06/30 09:53:09;;;;;;;9.77;3.83;;;;;;;33.16;30.83;99655.28;5127666;27;20031;-75
2022/06/30 09:55:38;;;;;;;6.80;3.75;;;;;;;32.81;32.08;99657.00;5129465;27;20102;-75
2022/06/30 09:58:04;;;;;;;7.00;3.85;;;;;;;32.50;32.44;99648.66;5130180;27;20042;-74
2022/06/30 10:00:30;;;;;;;11.60;3.83;;;;;;;32.45;31.96;99657.00;5128620;27;20047;-75
2022/06/30 10:03:05;;;;;;;13.15;4.60;;;;;;;32.45;32.07;99646.84;5111699;28;20035;-74
2022/06/30 10:05:30;;;;;;;5.93;3.42;;;;;;;32.45;36.31;99648.75;5125390;27;20030;-75
2022/06/30 10:07:57;;;;;;;7.72;3.70;;;;;;;31.64;33.39;99613.69;5128558;27;20105;-75
2022/06/30 10:10:24;;;;;;;6.05;3.42;;;;;;;32.02;35.21;99641.69;5127079;27;20031;-75
2022/06/30 10:12:51;;;;;;;13.30;3.80;;;;;;;32.18;34.74;99638.63;5127795;27;20120;-75
2022/06/30 10:15:17;;;;;;;5.97;3.40;;;;;;;32.40;33.95;99629.69;5127112;27;20038;-74
2022/06/30 10:17:50;;;;;;;6.93;3.83;;;;;;;32.46;32.91;99628.47;5125876;27;20031;-74
2022/06/30 10:20:16;;;;;;;20.88;4.55;;;;;;;32.55;32.93;99629.34;5126124;27;20255;-75
2022/06/30 10:22:41;;;;;;;11.93;3.72;;;;;;;32.56;33.10;99620.81;5125667;27;20034;-75
2022/06/30 10:25:07;;;;;;;5.68;4.05;;;;;;;32.01;35.57;99626.38;5126502;27;20047;-75
2022/06/30 10:27:34;;;;;;;5.53;3.50;;;;;;;31.90;35.58;99626.91;5124860;27;20065;-75
2022/06/30 10:30:00;;;;;;;7.22;3.70;;;;;;;31.96;36.37;99626.47;5123947;27;20067;-75
2022/06/30 10:32:43;;;;;;;8.82;4.18;;;;;;;31.73;35.05;99631.06;5129723;27;20039;-75
2022/06/30 10:35:11;;;;;;;7.38;4.00;;;;;;;31.73;34.31;99622.03;5124879;27;20038;-75
2022/06/30 10:37:47;;;;;;;7.35;3.90;;;;;;;31.90;34.10;99616.75;5127927;27;20043;-75
2022/06/30 10:40:40;;;;;;;7.75;3.88;;;;;;;32.03;34.03;99609.63;5127847;27;20031;-75
2022/06/30 10:43:05;;;;;;;7.15;3.40;;;;;;;32.33;33.84;99608.19;5095793;27;20099;-75
2022/06/30 10:45:31;;;;;;;5.50;3.63;;;;;;;32.31;33.99;99602.22;5128335;27;20340;-75
2022/06/30 10:47:59;;;;;;;6.97;3.60;;;;;;;32.31;33.63;99608.50;5127600;27;20038;-74
2022/06/30 10:50:38;;;;;;;10.07;4.03;;;;;;;32.38;34.62;99600.69;5126101;27;20027;-75
2022/06/30 10:53:06;;;;;;;8.93;4.30;;;;;;;32.03;33.57;99610.44;5122673;27;20027;-75
2022/06/30 10:55:52;;;;;;;16.05;4.00;;;;;;;32.14;33.32;99608.28;5128248;27;20041;-75
2022/06/30 10:58:19;;;;;;;5.75;3.75;;;;;;;31.88;37.35;99599.00;5131160;27;20034;-75
2022/06/30 11:01:00;;;;;;;6.32;3.70;;;;;;;31.88;34.33;99599.81;5126266;27;20328;-75
2022/06/30 11:03:29;;;;;;;6.32;3.65;;;;;;;31.75;33.69;99604.19;5127119;27;20051;-75
2022/06/30 11:05:55;;;;;;;7.85;3.80;;;;;;;31.83;33.43;99591.72;5127374;27;20039;-75
2022/06/30 11:08:52;;;;;;;9.35;3.60;;;;;;;31.91;36.30;99588.25;5133969;28;20042;-75
2022/06/30 11:11:23;;;;;;;12.25;3.60;;;;;;;31.98;35.45;99596.06;5124811;28;20107;-75
2022/06/30 11:13:49;;;;;;;8.60;3.85;;;;;;;32.07;34.69;99589.53;5127257;28;20294;-75
2022/06/30 11:16:16;;;;;;;4.90;3.15;;;;;;;32.04;35.36;99589.34;5105591;28;20023;-75
2022/06/30 11:18:42;;;;;;;6.93;3.13;;;;;;;32.12;34.26;99574.13;5133660;27;20042;-75
2022/06/30 11:21:08;;;;;;;7.47;2.83;;;;;;;31.90;33.18;99577.59;5133913;27;20035;-75
2022/06/30 11:23:44;;;;;;;7.97;3.05;;;;;;;32.02;32.54;99572.41;5129846;28;20066;-75
2022/06/30 11:28:58;;;;;;;5.85;3.00;;;;;;;32.37;32.90;99576.31;5125002;28;20265;-75
2022/06/30 11:31:35;;;;;;;7.72;3.10;;;;;;;32.09;33.57;99572.81;5106730;28;20019;-75
2022/06/30 11:34:05;;;;;;;10.93;3.25;;;;;;;32.03;33.56;99561.16;5130470;28;20050;-75
2022/06/30 11:36:36;;;;;;;6.28;2.85;;;;;;;32.19;32.85;99580.78;5123699;28;20051;-75
2022/06/30 11:39:15;;;;;;;9.48;3.25;;;;;;;32.27;32.20;99577.38;5133163;27;20054;-75
2022/06/30 11:41:54;;;;;;;7.05;3.05;;;;;;;32.18;31.25;99572.88;5130848;27;20039;-75